• Join FlightAware (Why Join?)
  • Login
  • US Flag GB Flag 
05:13 EST


 

Airport Tracker/Info


-or-


 

Live Flight TrackerFlight Track Log ✈ EJA808 ✈ 11-May-2013 ✈ KTEB - KBVY

Flight Track Log - Related Links

Times and Time Zones

All times are in EDT time to prevent confusion due to time zone crossing. See the EJA808 flight status page for this flight to view local times or setup timezone preferences in your user account.

Time Position Orientation Groundspeed Altitude Reporting Facility
EDT Latitude Longitude Course Direction KTS MPH feet Rate Location/Type
11:59 40.8333 -74.0833 56° Northeast 161 185 1,500  Level New York TRACON
12:00 40.8167 -74.1500 252° West 178 205 2,000 1,500 Climbing New York TRACON
12:01 40.8167 -74.2167 270° West 188 216 4,700 2,040 Climbing New York TRACON
12:02 40.8333 -74.3000 285° West 260 299 6,100 600 Climbing New York TRACON
12:03 40.9167 -74.2833 North 292 336 6,000 -60 Descending New York TRACON
12:04 40.9833 -74.2500 21° North 301 346 6,000  Level New York TRACON
12:05 41.2075 -73.8684 56° Northeast  Level FlightAware Approximate
12:05 41.0500 -74.2000 29° Northeast 302 348 6,000  Level New York TRACON
12:06 41.1333 -74.1500 24° Northeast 294 338 6,400 1,260 Climbing New York TRACON
12:07 41.1667 -74.0333 69° East 311 358 8,700 2,040 Climbing New York TRACON
12:08 41.2000 -73.9167 69° East 362 417 10,700 2,220 Climbing New York TRACON
12:10 41.2492 -73.7044 73° East 376 433 14,800 1,500 Climbing Boston Center
12:11 41.2819 -73.5672 72° East 376 433 14,900 600 Climbing Boston Center
12:12 41.3144 -73.4294 73° East 376 433 16,000 960 Climbing Boston Center
12:13 41.3614 -73.3003 64° Northeast 381 438 16,900 420 Climbing Boston Center
12:14 41.4144 -73.1597 63° Northeast 398 458 16,900 -180 Level Boston Center
12:15 41.4653 -73.0244 63° Northeast 404 465 16,600 -600 Descending Boston Center
12:16 41.5158 -72.8919 63° Northeast 399 459 15,700 -900 Descending Boston Center
12:17 41.5600 -72.8147 53° Northeast 392 451 15,200 -840 Descending Boston Center
12:17 41.5828 -72.7814 48° Northeast 394 453 14,900 -960 Descending Boston Center
12:18 41.6561 -72.6764 47° Northeast 383 441 13,900 -1,020 Descending Boston Center
12:19 41.7189 -72.5847 47° Northeast 386 444 13,100 -1,020 Descending Boston Center
12:20 41.7919 -72.4819 46° Northeast 380 437 12,100 -960 Descending Boston Center
12:21 41.8564 -72.3900 47° Northeast 372 428 11,300 -660 Descending Boston Center
12:22 41.9356 -72.2725 48° Northeast 362 417 10,800 -720 Descending Boston Center
12:23 41.9894 -72.1942 47° Northeast 332 382 9,900 -1,320 Descending Boston Center
12:24 42.0664 -72.0850 46° Northeast 333 383 8,100 -1,320 Descending Boston Center
12:25 42.1225 -72.0092 45° Northeast 327 376 7,100 -1,080 Descending Boston Center
12:26 42.1931 -71.9328 39° Northeast 309 356 6,100 -1,080 Descending Boston Center
12:27 42.2592 -71.8650 37° Northeast 302 348 5,100 -540 Descending Boston Center
12:28 42.3194 -71.7886 43° Northeast 301 346 5,000 -60 Descending Boston Center
12:29 42.3878 -71.7178 37° Northeast 290 334 5,000  Level Boston Center
12:30 42.4581 -71.6381 40° Northeast 275 316 5,000  Level Boston Center
12:31 42.5000 -71.5667 51° Northeast 276 318 5,000 -420 Level KA90
12:32 42.5333 -71.4667 66° East 274 315 4,300 -960 Descending KA90
12:33 42.5667 -71.3833 61° Northeast 255 293 3,100 -720 Descending KA90
12:34 42.5833 -71.3000 75° East 232 267 3,000 -60 Descending KA90
12:35 42.6167 -71.2333 56° Northeast 234 269 3,000  Level KA90
12:36 42.6367 -71.1333 75° East 234 269 3,100  Climbing Boston Center
12:37 42.6528 -71.0708 71° East 205 236 3,000 -60 Descending Boston Center
12:38 42.6725 -70.9942 71° East 200 230 3,000 -480 Level Boston Center
12:39 42.6883 -70.9289 72° East 194 223 2,100 -540 Descending Boston Center
12:40 42.6772 -70.8672 104° East 166 191 2,000 -60 Descending Boston Center
12:42 42.6497 -70.8394 143° Southeast 146 168 2,000 -420 Level Boston Center
12:43 42.6039 -70.8436 184° South 140 161 1,100 -780 Descending Boston Center
12:44 42.5919 -70.8833 248° West 124 143 500 -420 Descending Boston Center
12:45 42.5736 -70.9175 234° Southwest 119 137 300 -240 Descending Boston Center